Terminal Aerodrome Forecast
Issued by NWS Dodge City, KS

Home | Current Version | Previous Version | Graphics & Text | Print | Product List | Glossary Off
Versions: 1 2 3 4 5 6 7 8 9 10 11 12 13 14 15 16 17 18 19 20 21 22 23 24 25 26 27 28 29 30 31 32 33 34 35 36 37 38

000
FTUS43 KDDC 250049 AAA
TAFDDC
TAF AMD
KDDC 250049Z 2501/2524 28015G25KT P6SM BKN050
      TEMPO 2501/2503 -RA
     FM250300 VRB06KT P6SM VCSH BKN150
     FM250500 29010KT P6SM SCT100
     FM251500 34010KT P6SM SCT150=

USA.gov is the U.S. government's official web portal to all federal, state and local government web resources and services.